createdAt,value
2019-03-09T00:02:46.537Z,7.20
2019-03-09T00:05:25.935Z,6.83
2019-03-09T00:07:55.552Z,5.53
2019-03-09T00:10:25.196Z,7.37
2019-03-09T00:13:15.893Z,5.30
2019-03-09T00:15:45.549Z,8.00
2019-03-09T00:18:15.218Z,5.05
2019-03-09T00:20:44.571Z,7.60
2019-03-09T00:23:52.663Z,7.70
2019-03-09T00:26:35.972Z,7.33
2019-03-09T00:29:24.734Z,7.00
2019-03-09T00:35:04.247Z,6.90
2019-03-09T00:37:33.626Z,6.47
2019-03-09T00:42:42.161Z,6.20
2019-03-09T00:45:31.750Z,5.90
2019-03-09T00:48:01.255Z,6.93
2019-03-09T00:50:31.747Z,7.33
2019-03-09T00:53:01.375Z,6.73
2019-03-09T00:55:31.999Z,8.10
2019-03-09T00:58:20.746Z,6.13
2019-03-09T01:00:50.441Z,7.53
2019-03-09T01:03:19.878Z,6.40
2019-03-09T01:05:49.294Z,8.77
2019-03-09T01:08:18.660Z,10.30
2019-03-09T01:10:48.600Z,9.30
2019-03-09T01:13:17.972Z,8.40
2019-03-09T01:15:47.616Z,10.45
2019-03-09T01:18:36.624Z,9.70
2019-03-09T01:21:06.324Z,7.85
2019-03-09T01:23:35.688Z,6.83
2019-03-09T01:26:05.346Z,9.60
2019-03-09T01:28:34.991Z,8.50
2019-03-09T01:31:16.453Z,8.70
2019-03-09T01:33:45.810Z,6.53
2019-03-09T01:36:15.470Z,8.90
2019-03-09T01:38:45.118Z,7.50
2019-03-09T01:44:29.385Z,8.27
2019-03-09T01:46:58.738Z,6.13
2019-03-09T01:49:28.111Z,6.37
2019-03-09T01:55:43.001Z,5.70
2019-03-09T01:58:12.902Z,4.22
2019-03-09T02:00:44.961Z,4.65
2019-03-09T02:03:14.633Z,6.08
2019-03-09T02:05:43.980Z,5.93
2019-03-09T02:08:13.647Z,3.90
2019-03-09T02:10:43.272Z,4.20
2019-03-09T02:13:12.781Z,5.30
2019-03-09T02:15:42.133Z,5.63
2019-03-09T02:18:11.916Z,4.90
2019-03-09T02:20:41.559Z,4.20
2019-03-09T02:23:11.229Z,3.83
2019-03-09T02:26:00.215Z,5.00
2019-03-09T02:28:32.368Z,4.55
2019-03-09T02:31:03.633Z,5.80
2019-03-09T02:33:33.126Z,6.47
2019-03-09T02:36:22.050Z,5.63
2019-03-09T02:41:47.056Z,5.67
2019-03-09T02:44:16.714Z,5.50
2019-03-09T02:46:46.394Z,5.30
2019-03-09T02:49:26.048Z,6.87
2019-03-09T02:51:55.408Z,8.97
2019-03-09T02:54:24.925Z,7.93
2019-03-09T02:56:54.284Z,5.10
2019-03-09T02:59:33.991Z,6.00
2019-03-09T03:02:22.467Z,6.40
2019-03-09T03:04:51.836Z,6.97
2019-03-09T03:07:21.201Z,6.87
2019-03-09T03:09:50.843Z,5.40
2019-03-09T03:12:20.192Z,7.47
2019-03-09T03:14:51.200Z,5.47
2019-03-09T03:20:35.421Z,4.10
2019-03-09T03:23:05.086Z,6.97
2019-03-09T03:25:34.420Z,4.33
2019-03-09T03:28:23.689Z,5.23
2019-03-09T03:30:53.308Z,5.57
2019-03-09T03:33:32.801Z,3.70
2019-03-09T03:36:02.142Z,6.60
2019-03-09T03:38:32.574Z,3.37
2019-03-09T03:41:32.529Z,6.23
2019-03-09T03:44:21.712Z,4.93
2019-03-09T03:46:51.106Z,5.43
2019-03-09T03:52:10.756Z,5.23
2019-03-09T03:54:40.369Z,3.67
2019-03-09T03:57:09.991Z,3.50
2019-03-09T03:59:39.992Z,6.03
2019-03-09T04:04:58.009Z,5.00
2019-03-09T04:07:37.657Z,5.20
2019-03-09T04:10:29.464Z,7.43
2019-03-09T04:12:59.447Z,6.00
2019-03-09T04:15:29.108Z,6.12
2019-03-09T04:21:32.641Z,6.93
2019-03-09T04:24:02.199Z,4.73
2019-03-09T04:26:32.552Z,6.37
2019-03-09T04:29:21.525Z,6.07
2019-03-09T04:31:51.182Z,5.00
2019-03-09T04:34:20.542Z,4.60
2019-03-09T04:40:18.587Z,6.97
2019-03-09T04:42:48.745Z,5.65
2019-03-09T04:45:30.560Z,6.17
2019-03-09T04:48:12.315Z,7.80
2019-03-09T04:50:41.738Z,7.40
2019-03-09T04:53:30.584Z,5.90
2019-03-09T04:56:12.311Z,9.17
2019-03-09T04:58:41.731Z,5.53
2019-03-09T05:01:11.293Z,4.80
2019-03-09T05:03:40.967Z,7.12
2019-03-09T05:06:40.751Z,5.67
2019-03-09T05:13:00.843Z,3.47
2019-03-09T05:15:49.743Z,5.87
2019-03-09T05:18:31.630Z,4.00
2019-03-09T05:21:01.598Z,4.25
2019-03-09T05:23:31.213Z,3.52
2019-03-09T05:26:00.591Z,3.00
2019-03-09T05:28:30.239Z,3.90
2019-03-09T05:30:59.603Z,5.23
2019-03-09T05:37:03.331Z,3.77
2019-03-09T05:39:32.717Z,3.70
2019-03-09T05:42:02.649Z,4.40
2019-03-09T05:44:43.063Z,4.58
2019-03-09T05:47:12.721Z,4.17
2019-03-09T05:49:42.373Z,4.65
2019-03-09T05:52:31.149Z,4.70
2019-03-09T05:55:00.841Z,5.00
2019-03-09T06:00:29.776Z,4.10
2019-03-09T06:02:59.126Z,4.30
2019-03-09T06:09:02.944Z,3.60
2019-03-09T06:11:33.947Z,3.33
2019-03-09T06:14:16.006Z,4.93
2019-03-09T06:16:58.010Z,3.63
2019-03-09T06:19:39.741Z,3.93
2019-03-09T06:22:09.394Z,4.00
2019-03-09T06:24:39.175Z,4.20
2019-03-09T06:27:08.914Z,2.47
2019-03-09T06:29:38.566Z,3.77
2019-03-09T06:32:46.657Z,3.50
2019-03-09T06:35:46.869Z,4.47
2019-03-09T06:38:37.175Z,2.93
2019-03-09T06:41:18.050Z,4.20
2019-03-09T06:43:47.690Z,3.20
2019-03-09T06:46:17.088Z,2.37
2019-03-09T06:49:06.311Z,3.33
2019-03-09T06:51:36.045Z,3.80
2019-03-09T06:54:15.396Z,2.97
2019-03-09T06:56:44.867Z,3.03
2019-03-09T07:02:14.068Z,3.90
2019-03-09T07:04:43.710Z,3.30
2019-03-09T07:07:13.068Z,3.00
2019-03-09T07:09:44.199Z,4.17
2019-03-09T07:12:13.769Z,3.03
2019-03-09T07:18:32.678Z,3.57
2019-03-09T07:21:02.055Z,3.50
2019-03-09T07:23:33.028Z,2.98
2019-03-09T07:26:02.391Z,2.83
2019-03-09T07:28:33.143Z,2.77
2019-03-09T07:31:02.781Z,2.87
2019-03-09T07:33:33.155Z,2.52
2019-03-09T07:36:02.717Z,3.30
2019-03-09T07:38:33.206Z,3.30
2019-03-09T07:41:02.833Z,2.87
2019-03-09T07:43:33.261Z,2.40
2019-03-09T07:46:02.747Z,1.90
2019-03-09T07:48:33.238Z,3.40
2019-03-09T07:51:02.888Z,4.07
2019-03-09T07:53:33.237Z,2.10
2019-03-09T07:56:02.883Z,3.95
2019-03-09T07:58:33.215Z,3.08
2019-03-09T08:01:02.866Z,3.30
2019-03-09T08:03:33.175Z,2.58
2019-03-09T08:06:02.525Z,3.07
2019-03-09T08:08:33.350Z,2.58
2019-03-09T08:11:02.915Z,4.20
2019-03-09T08:13:33.265Z,2.77
2019-03-09T08:16:02.945Z,3.33
2019-03-09T08:18:33.216Z,3.20
2019-03-09T08:21:02.575Z,2.03
2019-03-09T08:23:33.727Z,4.33
2019-03-09T08:26:03.068Z,2.20
2019-03-09T08:28:33.340Z,2.33
2019-03-09T08:31:02.952Z,2.67
2019-03-09T08:36:29.291Z,1.97
2019-03-09T08:38:58.659Z,2.63
2019-03-09T08:41:28.112Z,2.73
2019-03-09T08:43:57.520Z,3.20
2019-03-09T08:46:27.436Z,1.80
2019-03-09T08:48:57.347Z,1.73
2019-03-09T08:51:26.694Z,2.40
2019-03-09T08:54:08.423Z,3.67
2019-03-09T08:59:34.110Z,2.73
2019-03-09T09:02:03.438Z,2.80
2019-03-09T09:04:34.784Z,2.97
2019-03-09T09:07:11.131Z,2.60
2019-03-09T09:09:40.810Z,1.80
2019-03-09T09:14:58.653Z,3.60
2019-03-09T09:17:28.268Z,1.97
2019-03-09T09:19:57.648Z,3.10
2019-03-09T09:22:27.484Z,2.50
2019-03-09T09:24:57.163Z,3.30
2019-03-09T09:27:26.574Z,2.43
2019-03-09T09:29:56.619Z,2.23
2019-03-09T09:32:27.039Z,2.40
2019-03-09T09:34:56.402Z,1.80
2019-03-09T09:37:25.755Z,3.10
2019-03-09T09:40:33.981Z,1.83
2019-03-09T09:43:03.351Z,1.77
2019-03-09T09:45:45.959Z,2.55
2019-03-09T09:48:15.341Z,2.93
2019-03-09T09:50:44.796Z,2.10
2019-03-09T09:53:33.344Z,3.20
2019-03-09T09:56:02.715Z,2.97
2019-03-09T09:58:33.320Z,2.57
2019-03-09T10:01:02.682Z,3.77
2019-03-09T10:03:33.413Z,3.70
2019-03-09T10:06:02.769Z,4.40
2019-03-09T10:08:32.382Z,3.70
2019-03-09T10:11:01.744Z,2.87
2019-03-09T10:13:31.326Z,3.10
2019-03-09T10:16:00.676Z,2.90
2019-03-09T10:18:30.335Z,3.52
2019-03-09T10:20:59.712Z,3.80
2019-03-09T10:23:29.457Z,3.03
2019-03-09T10:25:58.807Z,4.30
2019-03-09T10:28:28.431Z,2.77
2019-03-09T10:30:57.796Z,2.70
2019-03-09T10:33:27.446Z,3.00
2019-03-09T10:35:56.822Z,3.03
2019-03-09T10:38:28.097Z,2.85
2019-03-09T10:41:16.628Z,2.80
2019-03-09T10:43:46.302Z,4.13
2019-03-09T10:46:15.657Z,3.50
2019-03-09T10:48:45.310Z,3.90
2019-03-09T10:51:14.670Z,2.80
2019-03-09T10:53:44.019Z,6.03
2019-03-09T10:56:13.476Z,3.40
2019-03-09T10:58:43.135Z,4.10
2019-03-09T11:01:12.660Z,3.83
2019-03-09T11:03:42.347Z,2.80
2019-03-09T11:06:11.725Z,3.90
2019-03-09T11:08:41.361Z,3.57
2019-03-09T11:11:10.741Z,4.23
2019-03-09T11:13:40.096Z,4.15
2019-03-09T11:16:10.082Z,5.63
2019-03-09T11:18:59.357Z,4.62
2019-03-09T11:21:28.739Z,4.03
2019-03-09T11:23:58.100Z,4.67
2019-03-09T11:26:35.583Z,3.87
2019-03-09T11:29:04.946Z,3.80
2019-03-09T11:31:34.318Z,3.00
2019-03-09T11:34:04.061Z,2.53
2019-03-09T11:36:34.498Z,4.30
2019-03-09T11:42:18.752Z,3.40
2019-03-09T11:44:48.672Z,3.97
2019-03-09T11:47:18.025Z,4.27
2019-03-09T11:49:47.699Z,4.83
2019-03-09T11:52:20.430Z,4.20
2019-03-09T11:54:53.782Z,3.57
2019-03-09T11:57:23.138Z,2.57
2019-03-09T11:59:52.756Z,3.10
2019-03-09T12:02:22.128Z,4.67
2019-03-09T12:04:51.775Z,4.03
2019-03-09T12:07:21.148Z,4.00
2019-03-09T12:09:51.108Z,3.27
2019-03-09T12:12:20.478Z,3.40
2019-03-09T12:14:50.058Z,4.47
2019-03-09T12:17:19.961Z,3.15
2019-03-09T12:19:49.657Z,4.10
2019-03-09T12:22:19.014Z,4.30
2019-03-09T12:28:09.282Z,3.33
2019-03-09T12:30:38.946Z,3.60
2019-03-09T12:33:08.331Z,4.67
2019-03-09T12:35:38.001Z,3.80
2019-03-09T12:38:07.628Z,5.10
2019-03-09T12:40:37.403Z,5.00
2019-03-09T12:43:06.860Z,3.83
2019-03-09T12:45:49.026Z,5.70
2019-03-09T12:48:32.136Z,5.17
2019-03-09T12:51:13.863Z,4.70
2019-03-09T12:53:53.957Z,3.57
2019-03-09T12:56:23.337Z,3.80
2019-03-09T12:58:53.040Z,3.67
2019-03-09T13:01:22.673Z,2.80
2019-03-09T13:03:52.049Z,3.77
2019-03-09T13:06:21.402Z,2.90
2019-03-09T13:08:51.340Z,3.83
2019-03-09T13:11:21.050Z,2.90
2019-03-09T13:13:50.413Z,5.30
2019-03-09T13:16:20.020Z,3.73
2019-03-09T13:18:49.425Z,2.77
2019-03-09T13:24:15.203Z,3.07
2019-03-09T13:26:44.534Z,2.73
2019-03-09T13:29:14.176Z,3.90
2019-03-09T13:31:43.531Z,2.57
2019-03-09T13:34:13.052Z,3.30
2019-03-09T13:36:42.406Z,3.80
2019-03-09T13:39:12.079Z,3.37
2019-03-09T13:41:41.470Z,4.20
2019-03-09T13:44:11.181Z,4.00
2019-03-09T13:46:40.539Z,2.90
2019-03-09T13:49:10.169Z,4.83
2019-03-09T13:51:39.809Z,4.30
2019-03-09T13:54:09.295Z,3.13
2019-03-09T13:56:38.896Z,3.77
2019-03-09T13:59:08.598Z,5.40
2019-03-09T14:01:38.620Z,5.00
2019-03-09T14:04:09.598Z,5.93
2019-03-09T14:06:39.244Z,3.87
2019-03-09T14:09:29.771Z,6.70
2019-03-09T14:11:59.305Z,6.27
2019-03-09T14:14:28.679Z,4.60
2019-03-09T14:16:58.289Z,8.10
2019-03-09T14:19:27.666Z,6.33
2019-03-09T14:21:57.245Z,7.27
2019-03-09T14:24:38.577Z,8.57
2019-03-09T14:27:07.932Z,4.70
2019-03-09T14:29:37.597Z,7.60
2019-03-09T14:32:07.249Z,4.55
2019-03-09T14:34:36.627Z,4.33
2019-03-09T14:37:06.286Z,4.05
2019-03-09T14:39:35.957Z,4.93
2019-03-09T14:42:05.480Z,2.43
2019-03-09T14:44:34.838Z,3.40
2019-03-09T14:47:04.407Z,2.20
2019-03-09T14:49:34.711Z,2.80
2019-03-09T14:52:04.333Z,3.20
2019-03-09T14:54:34.750Z,2.35
2019-03-09T14:57:04.410Z,4.00
2019-03-09T14:59:34.888Z,2.33
2019-03-09T15:02:04.387Z,4.90
2019-03-09T15:04:34.759Z,4.15
2019-03-09T15:07:35.426Z,3.57
2019-03-09T15:10:35.494Z,4.53
2019-03-09T15:13:04.863Z,4.13
2019-03-09T15:15:34.846Z,3.87
2019-03-09T15:18:04.768Z,3.20
2019-03-09T15:20:34.875Z,3.02
2019-03-09T15:23:04.570Z,2.20
2019-03-09T15:25:34.845Z,2.25
2019-03-09T15:28:04.611Z,1.63
2019-03-09T15:30:35.887Z,1.80
2019-03-09T15:33:05.526Z,2.10
2019-03-09T15:35:35.002Z,2.27
2019-03-09T15:38:04.681Z,2.30
2019-03-09T15:40:34.943Z,2.92
2019-03-09T15:43:04.570Z,2.50
2019-03-09T15:45:34.933Z,2.40
2019-03-09T15:48:04.564Z,3.22
2019-03-09T15:50:35.037Z,2.37
2019-03-09T15:53:04.745Z,1.83
2019-03-09T15:55:35.349Z,1.40
2019-03-09T15:58:04.700Z,1.70
2019-03-09T16:00:35.285Z,1.10
2019-03-09T16:06:38.901Z,1.57
2019-03-09T16:09:08.255Z,2.13
2019-03-09T16:11:45.040Z,1.27
2019-03-09T16:14:28.072Z,1.20
2019-03-09T16:16:57.721Z,1.00
2019-03-09T16:19:28.741Z,1.00
2019-03-09T16:21:58.093Z,1.40
2019-03-09T16:24:27.737Z,1.00
2019-03-09T16:26:57.385Z,3.07
2019-03-09T16:29:46.149Z,1.00
2019-03-09T16:32:15.826Z,0.80
2019-03-09T16:34:45.178Z,0.80
2019-03-09T16:37:14.863Z,0.90
2019-03-09T16:39:44.294Z,0.67
2019-03-09T16:42:25.704Z,1.00
2019-03-09T16:44:55.062Z,1.10
2019-03-09T16:47:25.081Z,1.07
2019-03-09T16:49:54.723Z,1.60
2019-03-09T16:52:24.307Z,1.03
2019-03-09T16:55:44.849Z,0.90
2019-03-09T16:58:14.204Z,1.00
2019-03-09T17:00:43.861Z,0.70
2019-03-09T17:03:34.329Z,1.50
2019-03-09T17:06:14.319Z,1.37
2019-03-09T17:08:43.965Z,1.12
2019-03-09T17:11:13.333Z,0.90
2019-03-09T17:13:43.109Z,1.40
2019-03-09T17:16:12.491Z,1.00
2019-03-09T17:18:43.737Z,1.07
2019-03-09T17:21:13.096Z,1.40
2019-03-09T17:23:42.468Z,1.23
2019-03-09T17:26:24.112Z,1.83
2019-03-09T17:28:53.486Z,1.30
2019-03-09T17:31:23.166Z,0.87
2019-03-09T17:34:02.381Z,1.10
2019-03-09T17:36:32.058Z,1.80
2019-03-09T17:39:01.418Z,0.73
2019-03-09T17:41:32.416Z,1.03
2019-03-09T17:44:01.957Z,1.57
2019-03-09T17:46:31.348Z,1.03
2019-03-09T17:49:01.001Z,0.70
2019-03-09T17:51:42.253Z,0.63
2019-03-09T17:54:23.751Z,1.47
2019-03-09T17:56:53.130Z,0.90
2019-03-09T17:59:22.478Z,0.67
2019-03-09T18:01:52.163Z,0.60
2019-03-09T18:04:21.536Z,1.13
2019-03-09T18:06:51.182Z,0.85
2019-03-09T18:09:20.558Z,0.50
2019-03-09T18:11:50.207Z,1.00
2019-03-09T18:14:19.588Z,1.00
2019-03-09T18:16:52.703Z,0.50
2019-03-09T18:19:25.555Z,0.80
2019-03-09T18:21:55.233Z,1.00
2019-03-09T18:24:24.855Z,0.70
2019-03-09T18:26:54.228Z,1.00
2019-03-09T18:29:23.592Z,1.00
2019-03-09T18:31:53.252Z,0.62
2019-03-09T18:34:22.630Z,0.90
2019-03-09T18:37:11.571Z,1.43
2019-03-09T18:39:41.577Z,4.17
2019-03-09T18:42:30.583Z,1.27
2019-03-09T18:48:35.573Z,0.93
2019-03-09T18:51:24.580Z,1.20
2019-03-09T18:53:54.226Z,0.60
2019-03-09T18:56:23.601Z,1.03
2019-03-09T18:58:53.252Z,1.40
2019-03-09T19:01:22.650Z,0.80
2019-03-09T19:04:11.666Z,0.77
2019-03-09T19:06:41.270Z,0.63
2019-03-09T19:09:41.122Z,0.90
2019-03-09T19:12:11.454Z,0.80
2019-03-09T19:14:41.473Z,1.50
2019-03-09T19:17:31.516Z,1.07
2019-03-09T19:20:00.965Z,1.70
2019-03-09T19:22:49.831Z,0.80
2019-03-09T19:25:29.379Z,1.37
2019-03-09T19:27:58.734Z,0.80
2019-03-09T19:30:28.461Z,0.70
2019-03-09T19:33:00.698Z,1.30
2019-03-09T19:35:34.392Z,1.35
2019-03-09T19:38:03.770Z,1.57
2019-03-09T19:40:33.446Z,1.80
2019-03-09T19:43:02.798Z,0.90
2019-03-09T19:45:32.179Z,1.00
2019-03-09T19:48:21.000Z,0.80
2019-03-09T19:51:01.043Z,1.27
2019-03-09T19:53:30.501Z,1.20
2019-03-09T19:56:00.083Z,1.10
2019-03-09T19:58:39.726Z,1.23
2019-03-09T20:01:09.382Z,1.52
2019-03-09T20:03:39.066Z,1.00
2019-03-09T20:06:27.978Z,1.10
2019-03-09T20:08:57.667Z,1.00
2019-03-09T20:11:27.022Z,1.20
2019-03-09T20:13:56.558Z,0.90
2019-03-09T20:16:25.913Z,1.23
2019-03-09T20:18:55.527Z,1.70
2019-03-09T20:21:24.881Z,1.77
2019-03-09T20:23:54.540Z,1.67
2019-03-09T20:26:23.899Z,0.93
2019-03-09T20:28:53.568Z,0.93
2019-03-09T20:34:56.981Z,2.60
2019-03-09T20:37:26.672Z,1.60
2019-03-09T20:39:56.046Z,0.50
2019-03-09T20:42:25.695Z,1.40
2019-03-09T20:44:55.362Z,1.13
2019-03-09T20:47:24.718Z,1.13
2019-03-09T20:49:54.092Z,1.20
2019-03-09T20:52:23.648Z,3.23
2019-03-09T20:54:53.344Z,2.70
2019-03-09T20:57:22.814Z,1.33
2019-03-09T20:59:52.199Z,0.80
2019-03-09T21:02:32.073Z,1.30
2019-03-09T21:07:43.074Z,1.33
2019-03-09T21:10:32.110Z,1.77
2019-03-09T21:13:21.149Z,1.33
2019-03-09T21:15:50.827Z,1.00
2019-03-09T21:18:20.183Z,1.60
2019-03-09T21:20:49.864Z,1.45
2019-03-09T21:23:19.225Z,1.40
2019-03-09T21:25:48.887Z,1.52
2019-03-09T21:28:18.243Z,1.17
2019-03-09T21:30:48.135Z,1.70
2019-03-09T21:33:17.743Z,2.50
2019-03-09T21:35:47.116Z,0.83
2019-03-09T21:38:16.763Z,1.52
2019-03-09T21:40:48.046Z,1.37
2019-03-09T21:43:17.697Z,1.22
2019-03-09T21:45:47.723Z,1.77
2019-03-09T21:48:17.090Z,1.40
2019-03-09T21:50:46.478Z,1.60
2019-03-09T21:53:15.981Z,2.20
2019-03-09T21:55:45.419Z,1.63
2019-03-09T21:58:14.961Z,2.93
2019-03-09T22:00:44.364Z,1.35
2019-03-09T22:03:14.010Z,0.88
2019-03-09T22:05:45.311Z,2.02
2019-03-09T22:08:15.223Z,1.93
2019-03-09T22:10:44.609Z,1.67
2019-03-09T22:13:14.055Z,2.33
2019-03-09T22:15:43.432Z,2.27
2019-03-09T22:18:13.097Z,2.10
2019-03-09T22:20:42.489Z,3.07
2019-03-09T22:23:12.034Z,2.90
2019-03-09T22:25:41.415Z,2.60
2019-03-09T22:28:11.063Z,2.60
2019-03-09T22:30:40.761Z,1.98
2019-03-09T22:33:10.209Z,2.30
2019-03-09T22:35:39.596Z,2.90
2019-03-09T22:38:28.780Z,3.00
2019-03-09T22:40:58.158Z,2.50
2019-03-09T22:43:27.757Z,2.60
2019-03-09T22:45:59.054Z,2.62
2019-03-09T22:48:28.421Z,2.90
2019-03-09T22:54:33.293Z,2.00
2019-03-09T22:57:02.677Z,3.00
2019-03-09T22:59:32.228Z,2.73
2019-03-09T23:04:57.507Z,2.50
2019-03-09T23:07:27.182Z,1.60
2019-03-09T23:09:56.536Z,1.93
2019-03-09T23:12:26.169Z,2.53
2019-03-09T23:14:57.401Z,2.80
2019-03-09T23:17:26.790Z,3.00
2019-03-09T23:19:56.250Z,3.30
2019-03-09T23:22:25.626Z,2.47
2019-03-09T23:24:55.242Z,2.40
2019-03-09T23:27:24.618Z,2.60
2019-03-09T23:29:54.273Z,2.62
2019-03-09T23:32:23.650Z,2.17
2019-03-09T23:34:53.313Z,1.97
2019-03-09T23:37:22.695Z,2.87
2019-03-09T23:39:52.344Z,2.67
2019-03-09T23:42:21.722Z,3.20
2019-03-09T23:44:51.388Z,1.52
2019-03-09T23:47:22.403Z,3.60
2019-03-09T23:49:52.020Z,3.57
2019-03-09T23:52:21.403Z,3.23
2019-03-09T23:54:51.050Z,3.07
2019-03-09T23:57:39.891Z,2.13
